sensor_id;sensor_type;location;lat;lon;timestamp;pressure;altitude;pressure_sealevel;temperature;humidity
62634;BME280;48704;50.534;6.442;2023-01-29T00:02:12;96651.94;;;-4.87;100.00
62634;BME280;48704;50.534;6.442;2023-01-29T00:04:38;96653.44;;;-4.90;100.00
62634;BME280;48704;50.534;6.442;2023-01-29T00:07:03;96651.09;;;-4.56;100.00
62634;BME280;48704;50.534;6.442;2023-01-29T00:09:28;96650.16;;;-4.64;100.00
62634;BME280;48704;50.534;6.442;2023-01-29T00:11:55;96650.75;;;-4.71;100.00
62634;BME280;48704;50.534;6.442;2023-01-29T00:14:20;96649.72;;;-4.66;100.00
62634;BME280;48704;50.534;6.442;2023-01-29T00:16:46;96639.72;;;-4.78;100.00
62634;BME280;48704;50.534;6.442;2023-01-29T00:19:11;96621.16;;;-5.07;100.00
62634;BME280;48704;50.534;6.442;2023-01-29T00:21:36;96627.47;;;-5.19;100.00
62634;BME280;48704;50.534;6.442;2023-01-29T00:24:02;96613.34;;;-5.09;100.00
62634;BME280;48704;50.534;6.442;2023-01-29T00:26:27;96614.94;;;-5.08;100.00
62634;BME280;48704;50.534;6.442;2023-01-29T00:28:52;96618.88;;;-5.05;100.00
62634;BME280;48704;50.534;6.442;2023-01-29T00:31:19;96611.59;;;-5.01;100.00
62634;BME280;48704;50.534;6.442;2023-01-29T00:33:47;96615.56;;;-4.98;100.00
62634;BME280;48704;50.534;6.442;2023-01-29T00:36:14;96618.19;;;-5.02;100.00
62634;BME280;48704;50.534;6.442;2023-01-29T00:38:41;96603.72;;;-5.06;100.00
62634;BME280;48704;50.534;6.442;2023-01-29T00:41:13;96605.03;;;-5.00;100.00
62634;BME280;48704;50.534;6.442;2023-01-29T00:43:59;96603.53;;;-4.97;100.00
62634;BME280;48704;50.534;6.442;2023-01-29T00:46:43;96594.88;;;-5.03;100.00
62634;BME280;48704;50.534;6.442;2023-01-29T00:49:09;96602.59;;;-5.36;100.00
62634;BME280;48704;50.534;6.442;2023-01-29T00:51:36;96591.22;;;-5.26;100.00
62634;BME280;48704;50.534;6.442;2023-01-29T00:54:02;96588.47;;;-5.42;100.00
62634;BME280;48704;50.534;6.442;2023-01-29T00:56:31;96582.25;;;-5.43;100.00
62634;BME280;48704;50.534;6.442;2023-01-29T00:58:57;96587.84;;;-5.67;100.00
62634;BME280;48704;50.534;6.442;2023-01-29T01:01:22;96580.50;;;-5.66;100.00
62634;BME280;48704;50.534;6.442;2023-01-29T01:04:08;96576.75;;;-5.62;100.00
62634;BME280;48704;50.534;6.442;2023-01-29T01:06:36;96572.44;;;-5.63;100.00
62634;BME280;48704;50.534;6.442;2023-01-29T01:09:02;96550.88;;;-5.56;100.00
62634;BME280;48704;50.534;6.442;2023-01-29T01:11:46;96555.78;;;-5.77;100.00
62634;BME280;48704;50.534;6.442;2023-01-29T01:14:12;96556.75;;;-5.69;100.00
62634;BME280;48704;50.534;6.442;2023-01-29T01:16:37;96560.72;;;-5.67;100.00
62634;BME280;48704;50.534;6.442;2023-01-29T01:19:03;96562.88;;;-5.57;100.00
62634;BME280;48704;50.534;6.442;2023-01-29T01:21:29;96554.91;;;-5.50;100.00
62634;BME280;48704;50.534;6.442;2023-01-29T01:23:54;96561.03;;;-5.53;100.00
62634;BME280;48704;50.534;6.442;2023-01-29T01:26:19;96552.31;;;-5.62;100.00
62634;BME280;48704;50.534;6.442;2023-01-29T01:28:45;96563.31;;;-5.55;100.00
62634;BME280;48704;50.534;6.442;2023-01-29T01:31:11;96565.44;;;-5.64;100.00
62634;BME280;48704;50.534;6.442;2023-01-29T01:33:37;96574.72;;;-5.65;100.00
62634;BME280;48704;50.534;6.442;2023-01-29T01:36:03;96563.31;;;-5.55;100.00
62634;BME280;48704;50.534;6.442;2023-01-29T01:38:29;96568.84;;;-5.67;100.00
62634;BME280;48704;50.534;6.442;2023-01-29T01:40:54;96571.91;;;-6.00;100.00
62634;BME280;48704;50.534;6.442;2023-01-29T01:43:19;96573.63;;;-6.08;100.00
62634;BME280;48704;50.534;6.442;2023-01-29T01:45:45;96572.53;;;-6.19;100.00
62634;BME280;48704;50.534;6.442;2023-01-29T01:48:20;96572.34;;;-6.26;100.00
62634;BME280;48704;50.534;6.442;2023-01-29T01:50:59;96566.56;;;-6.24;100.00
62634;BME280;48704;50.534;6.442;2023-01-29T01:53:36;96564.84;;;-6.45;100.00
62634;BME280;48704;50.534;6.442;2023-01-29T01:56:06;96569.28;;;-6.52;100.00
62634;BME280;48704;50.534;6.442;2023-01-29T01:58:36;96584.03;;;-6.78;100.00
62634;BME280;48704;50.534;6.442;2023-01-29T02:01:07;96581.88;;;-6.72;100.00
62634;BME280;48704;50.534;6.442;2023-01-29T02:03:39;96573.41;;;-6.70;100.00
62634;BME280;48704;50.534;6.442;2023-01-29T02:06:25;96575.56;;;-6.36;100.00
62634;BME280;48704;50.534;6.442;2023-01-29T02:09:14;96582.16;;;-6.61;100.00
62634;BME280;48704;50.534;6.442;2023-01-29T02:12:01;96579.41;;;-6.89;100.00
62634;BME280;48704;50.534;6.442;2023-01-29T02:14:26;96568.69;;;-6.98;100.00
62634;BME280;48704;50.534;6.442;2023-01-29T02:16:52;96574.69;;;-6.52;100.00
62634;BME280;48704;50.534;6.442;2023-01-29T02:27:19;96561.66;;;-6.75;100.00
62634;BME280;48704;50.534;6.442;2023-01-29T02:30:02;96556.28;;;-6.99;100.00
62634;BME280;48704;50.534;6.442;2023-01-29T02:32:40;96563.03;;;-7.05;100.00
62634;BME280;48704;50.534;6.442;2023-01-29T02:38:12;96565.78;;;-7.42;100.00
62634;BME280;48704;50.534;6.442;2023-01-29T02:40:54;96568.50;;;-7.54;100.00
62634;BME280;48704;50.534;6.442;2023-01-29T02:43:27;96562.06;;;-7.49;100.00
62634;BME280;48704;50.534;6.442;2023-01-29T02:46:05;96555.31;;;-7.43;100.00
62634;BME280;48704;50.534;6.442;2023-01-29T02:48:57;96557.22;;;-7.44;100.00
62634;BME280;48704;50.534;6.442;2023-01-29T02:51:42;96563.31;;;-7.47;100.00
62634;BME280;48704;50.534;6.442;2023-01-29T02:54:22;96561.41;;;-7.46;100.00
62634;BME280;48704;50.534;6.442;2023-01-29T02:56:56;96562.16;;;-7.58;100.00
62634;BME280;48704;50.534;6.442;2023-01-29T02:59:24;96562.97;;;-7.33;100.00
62634;BME280;48704;50.534;6.442;2023-01-29T03:01:55;96556.16;;;-7.76;100.00
62634;BME280;48704;50.534;6.442;2023-01-29T03:04:30;96561.72;;;-7.60;100.00
62634;BME280;48704;50.534;6.442;2023-01-29T03:07:04;96556.97;;;-7.63;100.00
62634;BME280;48704;50.534;6.442;2023-01-29T03:09:43;96569.13;;;-7.69;100.00
62634;BME280;48704;50.534;6.442;2023-01-29T03:12:18;96578.13;;;-7.77;100.00
62634;BME280;48704;50.534;6.442;2023-01-29T03:15:08;96568.94;;;-7.64;100.00
62634;BME280;48704;50.534;6.442;2023-01-29T03:18:00;96571.66;;;-7.52;100.00
62634;BME280;48704;50.534;6.442;2023-01-29T03:20:32;96571.66;;;-7.52;100.00
62634;BME280;48704;50.534;6.442;2023-01-29T03:23:13;96575.22;;;-7.84;100.00
62634;BME280;48704;50.534;6.442;2023-01-29T03:25:41;96577.75;;;-8.00;100.00
62634;BME280;48704;50.534;6.442;2023-01-29T03:28:26;96590.28;;;-7.95;100.00
62634;BME280;48704;50.534;6.442;2023-01-29T03:31:14;96592.94;;;-8.07;100.00
62634;BME280;48704;50.534;6.442;2023-01-29T03:34:06;96607.19;;;-7.98;100.00
62634;BME280;48704;50.534;6.442;2023-01-29T03:36:35;96608.41;;;-7.63;100.00
62634;BME280;48704;50.534;6.442;2023-01-29T03:39:05;96606.69;;;-7.67;100.00
62634;BME280;48704;50.534;6.442;2023-01-29T03:41:35;96612.25;;;-7.97;100.00
62634;BME280;48704;50.534;6.442;2023-01-29T03:44:18;96600.22;;;-7.87;100.00
62634;BME280;48704;50.534;6.442;2023-01-29T03:46:57;96597.94;;;-7.97;100.00
62634;BME280;48704;50.534;6.442;2023-01-29T03:58:37;96583.34;;;-8.50;100.00
62634;BME280;48704;50.534;6.442;2023-01-29T04:01:26;96576.31;;;-7.97;100.00
62634;BME280;48704;50.534;6.442;2023-01-29T04:04:14;96580.28;;;-8.28;100.00
62634;BME280;48704;50.534;6.442;2023-01-29T04:06:42;96574.88;;;-8.16;100.00
62634;BME280;48704;50.534;6.442;2023-01-29T04:09:14;96568.59;;;-8.20;100.00
62634;BME280;48704;50.534;6.442;2023-01-29T04:11:45;96571.94;;;-8.35;100.00
62634;BME280;48704;50.534;6.442;2023-01-29T04:14:12;96568.09;;;-8.34;100.00
62634;BME280;48704;50.534;6.442;2023-01-29T04:16:41;96555.03;;;-8.32;100.00
62634;BME280;48704;50.534;6.442;2023-01-29T04:19:09;96553.91;;;-8.31;100.00
62634;BME280;48704;50.534;6.442;2023-01-29T04:21:34;96553.47;;;-8.33;100.00
62634;BME280;48704;50.534;6.442;2023-01-29T04:24:03;96554.34;;;-8.41;100.00
62634;BME280;48704;50.534;6.442;2023-01-29T04:29:53;96562.47;;;-8.17;100.00
62634;BME280;48704;50.534;6.442;2023-01-29T04:32:35;96567.06;;;-7.96;100.00
62634;BME280;48704;50.534;6.442;2023-01-29T04:35:20;96555.22;;;-8.04;100.00
62634;BME280;48704;50.534;6.442;2023-01-29T04:38:21;96563.59;;;-8.30;100.00
62634;BME280;48704;50.534;6.442;2023-01-29T04:41:17;96554.50;;;-8.13;100.00
62634;BME280;48704;50.534;6.442;2023-01-29T04:44:01;96542.84;;;-8.71;100.00
62634;BME280;48704;50.534;6.442;2023-01-29T04:49:40;96536.06;;;-8.44;100.00
62634;BME280;48704;50.534;6.442;2023-01-29T04:52:38;96525.84;;;-8.71;100.00
62634;BME280;48704;50.534;6.442;2023-01-29T04:58:06;96516.63;;;-8.37;100.00
62634;BME280;48704;50.534;6.442;2023-01-29T05:00:40;96519.47;;;-8.10;100.00
62634;BME280;48704;50.534;6.442;2023-01-29T05:03:07;96507.97;;;-8.06;100.00
62634;BME280;48704;50.534;6.442;2023-01-29T05:05:38;96514.13;;;-8.30;100.00
62634;BME280;48704;50.534;6.442;2023-01-29T05:08:06;96519.78;;;-8.35;100.00
62634;BME280;48704;50.534;6.442;2023-01-29T05:10:32;96514.31;;;-8.02;100.00
62634;BME280;48704;50.534;6.442;2023-01-29T05:13:04;96531.72;;;-8.36;100.00
62634;BME280;48704;50.534;6.442;2023-01-29T05:16:03;96536.91;;;-8.64;100.00
62634;BME280;48704;50.534;6.442;2023-01-29T05:18:32;96537.03;;;-8.16;100.00
62634;BME280;48704;50.534;6.442;2023-01-29T05:21:01;96539.72;;;-8.28;100.00
62634;BME280;48704;50.534;6.442;2023-01-29T05:23:28;96528.09;;;-8.40;100.00
62634;BME280;48704;50.534;6.442;2023-01-29T05:25:55;96528.41;;;-8.54;100.00
62634;BME280;48704;50.534;6.442;2023-01-29T05:28:21;96521.84;;;-8.53;100.00
62634;BME280;48704;50.534;6.442;2023-01-29T05:30:48;96516.38;;;-8.98;100.00
62634;BME280;48704;50.534;6.442;2023-01-29T05:35:42;96525.06;;;-8.93;100.00
62634;BME280;48704;50.534;6.442;2023-01-29T05:38:08;96513.84;;;-8.83;100.00
62634;BME280;48704;50.534;6.442;2023-01-29T05:40:33;96518.59;;;-8.80;100.00
62634;BME280;48704;50.534;6.442;2023-01-29T05:42:59;96524.38;;;-8.69;100.00
62634;BME280;48704;50.534;6.442;2023-01-29T05:45:25;96522.94;;;-8.66;100.00
62634;BME280;48704;50.534;6.442;2023-01-29T05:47:54;96523.44;;;-8.52;100.00
62634;BME280;48704;50.534;6.442;2023-01-29T05:50:20;96531.06;;;-8.33;100.00
62634;BME280;48704;50.534;6.442;2023-01-29T05:52:45;96528.34;;;-8.33;100.00
62634;BME280;48704;50.534;6.442;2023-01-29T05:55:10;96542.19;;;-8.68;100.00
62634;BME280;48704;50.534;6.442;2023-01-29T05:57:36;96538.78;;;-8.44;100.00
62634;BME280;48704;50.534;6.442;2023-01-29T06:00:02;96536.78;;;-8.35;100.00
62634;BME280;48704;50.534;6.442;2023-01-29T06:02:29;96525.19;;;-8.23;100.00
62634;BME280;48704;50.534;6.442;2023-01-29T06:04:55;96526.97;;;-8.39;100.00
62634;BME280;48704;50.534;6.442;2023-01-29T06:07:20;96525.72;;;-8.42;100.00
62634;BME280;48704;50.534;6.442;2023-01-29T06:09:46;96528.59;;;-8.59;100.00
62634;BME280;48704;50.534;6.442;2023-01-29T06:12:11;96536.25;;;-8.61;100.00
62634;BME280;48704;50.534;6.442;2023-01-29T06:14:37;96533.34;;;-8.77;100.00
62634;BME280;48704;50.534;6.442;2023-01-29T06:17:02;96534.66;;;-8.62;100.00
62634;BME280;48704;50.534;6.442;2023-01-29T06:19:28;96530.50;;;-8.60;100.00
62634;BME280;48704;50.534;6.442;2023-01-29T06:21:54;96520.03;;;-8.61;100.00
62634;BME280;48704;50.534;6.442;2023-01-29T06:24:19;96524.69;;;-8.50;100.00
62634;BME280;48704;50.534;6.442;2023-01-29T06:26:44;96516.44;;;-9.07;100.00
62634;BME280;48704;50.534;6.442;2023-01-29T06:29:09;96508.78;;;-9.05;100.00
62634;BME280;48704;50.534;6.442;2023-01-29T06:31:35;96522.56;;;-8.98;100.00
62634;BME280;48704;50.534;6.442;2023-01-29T06:34:00;96523.53;;;-8.61;100.00
62634;BME280;48704;50.534;6.442;2023-01-29T06:36:25;96525.03;;;-8.72;100.00
62634;BME280;48704;50.534;6.442;2023-01-29T06:38:51;96521.28;;;-8.59;100.00
62634;BME280;48704;50.534;6.442;2023-01-29T06:41:18;96521.06;;;-8.54;100.00
62634;BME280;48704;50.534;6.442;2023-01-29T06:43:44;96517.13;;;-8.56;100.00
62634;BME280;48704;50.534;6.442;2023-01-29T06:46:09;96520.28;;;-8.54;100.00
62634;BME280;48704;50.534;6.442;2023-01-29T06:48:35;96511.59;;;-8.60;100.00
62634;BME280;48704;50.534;6.442;2023-01-29T06:51:04;96505.28;;;-8.64;100.00
62634;BME280;48704;50.534;6.442;2023-01-29T06:53:31;96516.41;;;-8.65;100.00
62634;BME280;48704;50.534;6.442;2023-01-29T06:55:57;96518.47;;;-8.62;100.00
62634;BME280;48704;50.534;6.442;2023-01-29T06:58:22;96520.56;;;-8.68;100.00
62634;BME280;48704;50.534;6.442;2023-01-29T07:00:48;96524.25;;;-8.72;100.00
62634;BME280;48704;50.534;6.442;2023-01-29T07:03:13;96530.19;;;-8.58;100.00
62634;BME280;48704;50.534;6.442;2023-01-29T07:05:38;96541.91;;;-8.54;100.00
62634;BME280;48704;50.534;6.442;2023-01-29T07:08:04;96547.59;;;-8.35;100.00
62634;BME280;48704;50.534;6.442;2023-01-29T07:10:29;96557.84;;;-8.28;100.00
62634;BME280;48704;50.534;6.442;2023-01-29T07:12:54;96576.91;;;-8.25;100.00
62634;BME280;48704;50.534;6.442;2023-01-29T07:15:20;96590.63;;;-8.30;100.00
62634;BME280;48704;50.534;6.442;2023-01-29T07:17:56;96585.13;;;-8.75;100.00
62634;BME280;48704;50.534;6.442;2023-01-29T07:20:23;96582.69;;;-8.47;100.00
62634;BME280;48704;50.534;6.442;2023-01-29T07:22:48;96583.22;;;-8.21;100.00
62634;BME280;48704;50.534;6.442;2023-01-29T07:25:14;96585.78;;;-8.36;100.00
62634;BME280;48704;50.534;6.442;2023-01-29T07:27:39;96575.38;;;-8.67;100.00
62634;BME280;48704;50.534;6.442;2023-01-29T07:30:05;96570.38;;;-8.78;100.00
62634;BME280;48704;50.534;6.442;2023-01-29T07:32:30;96552.31;;;-8.86;100.00
62634;BME280;48704;50.534;6.442;2023-01-29T07:34:56;96550.94;;;-8.71;100.00
62634;BME280;48704;50.534;6.442;2023-01-29T07:37:21;96553.50;;;-8.74;100.00
62634;BME280;48704;50.534;6.442;2023-01-29T07:39:46;96554.78;;;-8.39;100.00
62634;BME280;48704;50.534;6.442;2023-01-29T07:42:11;96551.16;;;-7.98;100.00
62634;BME280;48704;50.534;6.442;2023-01-29T07:44:37;96540.03;;;-7.72;100.00
62634;BME280;48704;50.534;6.442;2023-01-29T07:47:02;96543.00;;;-7.65;100.00
62634;BME280;48704;50.534;6.442;2023-01-29T07:49:27;96535.44;;;-7.35;100.00
62634;BME280;48704;50.534;6.442;2023-01-29T07:51:53;96538.03;;;-7.26;100.00
62634;BME280;48704;50.534;6.442;2023-01-29T07:54:18;96543.09;;;-7.37;100.00
62634;BME280;48704;50.534;6.442;2023-01-29T07:56:43;96544.34;;;-7.59;100.00
62634;BME280;48704;50.534;6.442;2023-01-29T07:59:08;96553.91;;;-7.73;100.00
62634;BME280;48704;50.534;6.442;2023-01-29T08:01:34;96552.59;;;-7.43;100.00
62634;BME280;48704;50.534;6.442;2023-01-29T08:03:59;96557.44;;;-7.61;100.00
62634;BME280;48704;50.534;6.442;2023-01-29T08:06:24;96562.63;;;-7.44;100.00
62634;BME280;48704;50.534;6.442;2023-01-29T08:08:50;96560.56;;;-6.98;100.00
62634;BME280;48704;50.534;6.442;2023-01-29T08:11:16;96565.34;;;-7.07;100.00
62634;BME280;48704;50.534;6.442;2023-01-29T08:13:41;96571.50;;;-6.82;100.00
62634;BME280;48704;50.534;6.442;2023-01-29T08:16:07;96563.94;;;-6.77;100.00
62634;BME280;48704;50.534;6.442;2023-01-29T08:18:32;96565.47;;;-6.08;100.00
62634;BME280;48704;50.534;6.442;2023-01-29T08:21:01;96557.88;;;-5.55;100.00
62634;BME280;48704;50.534;6.442;2023-01-29T08:23:26;96565.84;;;-5.78;100.00
62634;BME280;48704;50.534;6.442;2023-01-29T08:25:51;96561.91;;;-5.80;100.00
62634;BME280;48704;50.534;6.442;2023-01-29T08:28:17;96559.06;;;-6.15;100.00
62634;BME280;48704;50.534;6.442;2023-01-29T08:30:42;96552.38;;;-5.74;100.00
62634;BME280;48704;50.534;6.442;2023-01-29T08:33:08;96563.91;;;-5.93;100.00
62634;BME280;48704;50.534;6.442;2023-01-29T08:35:33;96564.38;;;-5.44;100.00
62634;BME280;48704;50.534;6.442;2023-01-29T08:38:00;96578.97;;;-5.80;100.00
62634;BME280;48704;50.534;6.442;2023-01-29T08:40:29;96571.28;;;-5.78;100.00
62634;BME280;48704;50.534;6.442;2023-01-29T08:43:05;96579.69;;;-5.83;100.00
62634;BME280;48704;50.534;6.442;2023-01-29T08:45:36;96577.78;;;-5.51;100.00
62634;BME280;48704;50.534;6.442;2023-01-29T08:48:02;96572.78;;;-5.17;100.00
62634;BME280;48704;50.534;6.442;2023-01-29T08:50:27;96559.41;;;-5.57;100.00
62634;BME280;48704;50.534;6.442;2023-01-29T08:52:59;96549.31;;;-5.25;100.00
62634;BME280;48704;50.534;6.442;2023-01-29T08:55:25;96551.66;;;-5.08;100.00
62634;BME280;48704;50.534;6.442;2023-01-29T08:57:50;96554.78;;;-4.90;100.00
62634;BME280;48704;50.534;6.442;2023-01-29T09:00:16;96558.84;;;-4.81;100.00
62634;BME280;48704;50.534;6.442;2023-01-29T09:02:41;96569.09;;;-4.74;100.00
62634;BME280;48704;50.534;6.442;2023-01-29T09:05:07;96573.13;;;-5.03;100.00
62634;BME280;48704;50.534;6.442;2023-01-29T09:07:32;96575.22;;;-5.12;100.00
62634;BME280;48704;50.534;6.442;2023-01-29T09:09:57;96561.91;;;-5.17;100.00
62634;BME280;48704;50.534;6.442;2023-01-29T09:12:23;96568.22;;;-5.13;100.00
62634;BME280;48704;50.534;6.442;2023-01-29T09:14:48;96558.75;;;-5.19;100.00
62634;BME280;48704;50.534;6.442;2023-01-29T09:17:14;96570.88;;;-5.32;100.00
62634;BME280;48704;50.534;6.442;2023-01-29T09:19:39;96578.28;;;-5.14;100.00
62634;BME280;48704;50.534;6.442;2023-01-29T09:22:04;96568.56;;;-4.99;100.00
62634;BME280;48704;50.534;6.442;2023-01-29T09:24:30;96566.50;;;-4.51;100.00
62634;BME280;48704;50.534;6.442;2023-01-29T09:26:56;96569.28;;;-4.67;100.00
62634;BME280;48704;50.534;6.442;2023-01-29T09:29:22;96570.94;;;-4.05;100.00
62634;BME280;48704;50.534;6.442;2023-01-29T09:31:47;96564.13;;;-3.76;100.00
62634;BME280;48704;50.534;6.442;2023-01-29T09:34:12;96565.72;;;-3.71;100.00
62634;BME280;48704;50.534;6.442;2023-01-29T09:36:38;96562.06;;;-4.01;100.00
62634;BME280;48704;50.534;6.442;2023-01-29T09:39:03;96556.94;;;-4.26;100.00
62634;BME280;48704;50.534;6.442;2023-01-29T09:41:54;96556.38;;;-3.74;100.00
62634;BME280;48704;50.534;6.442;2023-01-29T09:47:29;96554.00;;;-3.29;100.00
62634;BME280;48704;50.534;6.442;2023-01-29T09:52:27;96552.13;;;-3.03;100.00
62634;BME280;48704;50.534;6.442;2023-01-29T09:55:11;96551.00;;;-2.72;100.00
62634;BME280;48704;50.534;6.442;2023-01-29T10:00:45;96547.22;;;-2.33;100.00
62634;BME280;48704;50.534;6.442;2023-01-29T10:03:30;96549.63;;;-2.58;100.00
62634;BME280;48704;50.534;6.442;2023-01-29T10:06:11;96534.75;;;-2.64;100.00
62634;BME280;48704;50.534;6.442;2023-01-29T10:25:20;96518.00;;;-1.59;100.00
62634;BME280;48704;50.534;6.442;2023-01-29T10:27:57;96506.25;;;-1.19;100.00
62634;BME280;48704;50.534;6.442;2023-01-29T10:30:33;96503.72;;;-0.90;100.00
62634;BME280;48704;50.534;6.442;2023-01-29T10:33:03;96511.16;;;-0.15;100.00
62634;BME280;48704;50.534;6.442;2023-01-29T10:35:32;96505.78;;;0.21;100.00
62634;BME280;48704;50.534;6.442;2023-01-29T10:38:11;96502.22;;;0.17;100.00
62634;BME280;48704;50.534;6.442;2023-01-29T10:40:47;96499.44;;;0.03;100.00
62634;BME280;48704;50.534;6.442;2023-01-29T10:43:35;96503.09;;;0.85;100.00
62634;BME280;48704;50.534;6.442;2023-01-29T10:46:25;96480.69;;;1.32;100.00
62634;BME280;48704;50.534;6.442;2023-01-29T10:49:05;96478.31;;;2.29;100.00
62634;BME280;48704;50.534;6.442;2023-01-29T10:51:45;96463.31;;;1.71;100.00
62634;BME280;48704;50.534;6.442;2023-01-29T10:54:29;96456.22;;;1.77;100.00
62634;BME280;48704;50.534;6.442;2023-01-29T11:00:02;96442.34;;;3.43;96.70
62634;BME280;48704;50.534;6.442;2023-01-29T11:02:34;96434.59;;;3.68;89.85
62634;BME280;48704;50.534;6.442;2023-01-29T11:04:59;96427.81;;;4.07;89.71
62634;BME280;48704;50.534;6.442;2023-01-29T11:07:24;96432.44;;;3.15;90.73
62634;BME280;48704;50.534;6.442;2023-01-29T11:10:01;96436.13;;;4.57;85.75
62634;BME280;48704;50.534;6.442;2023-01-29T11:12:30;96447.22;;;4.54;80.18
62634;BME280;48704;50.534;6.442;2023-01-29T11:15:04;96439.56;;;4.65;85.33
62634;BME280;48704;50.534;6.442;2023-01-29T11:17:32;96437.84;;;4.21;82.71
62634;BME280;48704;50.534;6.442;2023-01-29T11:19:57;96440.19;;;4.49;81.43
62634;BME280;48704;50.534;6.442;2023-01-29T11:22:29;96440.34;;;3.81;81.95
62634;BME280;48704;50.534;6.442;2023-01-29T11:25:16;96438.75;;;2.67;91.96
62634;BME280;48704;50.534;6.442;2023-01-29T11:27:54;96431.00;;;0.63;100.00
62634;BME280;48704;50.534;6.442;2023-01-29T11:30:23;96436.69;;;1.50;100.00
62634;BME280;48704;50.534;6.442;2023-01-29T11:32:56;96431.53;;;2.36;100.00
62634;BME280;48704;50.534;6.442;2023-01-29T11:35:23;96423.28;;;2.32;94.69
62634;BME280;48704;50.534;6.442;2023-01-29T11:37:49;96427.47;;;0.70;100.00
62634;BME280;48704;50.534;6.442;2023-01-29T11:42:44;96435.09;;;1.60;100.00
62634;BME280;48704;50.534;6.442;2023-01-29T11:47:48;96417.16;;;1.23;100.00
62634;BME280;48704;50.534;6.442;2023-01-29T11:50:24;96420.22;;;2.75;99.39
62634;BME280;48704;50.534;6.442;2023-01-29T11:52:49;96411.88;;;3.23;91.25
62634;BME280;48704;50.534;6.442;2023-01-29T11:55:18;96404.97;;;2.63;95.80
62634;BME280;48704;50.534;6.442;2023-01-29T11:58:02;96406.59;;;2.06;97.18
62634;BME280;48704;50.534;6.442;2023-01-29T12:00:30;96416.06;;;1.97;100.00
62634;BME280;48704;50.534;6.442;2023-01-29T12:03:06;96407.59;;;1.63;100.00
62634;BME280;48704;50.534;6.442;2023-01-29T12:05:37;96389.56;;;1.59;100.00
62634;BME280;48704;50.534;6.442;2023-01-29T12:08:14;96386.63;;;1.94;100.00
62634;BME280;48704;50.534;6.442;2023-01-29T12:10:41;96377.59;;;2.94;97.29
62634;BME280;48704;50.534;6.442;2023-01-29T12:15:40;96382.84;;;1.74;100.00
62634;BME280;48704;50.534;6.442;2023-01-29T12:20:44;96382.03;;;0.54;100.00
62634;BME280;48704;50.534;6.442;2023-01-29T12:23:25;96381.50;;;1.16;100.00
62634;BME280;48704;50.534;6.442;2023-01-29T12:26:06;96375.72;;;0.86;100.00
62634;BME280;48704;50.534;6.442;2023-01-29T12:28:58;96362.44;;;0.74;100.00
62634;BME280;48704;50.534;6.442;2023-01-29T12:31:42;96367.88;;;0.84;100.00
62634;BME280;48704;50.534;6.442;2023-01-29T12:34:22;96366.38;;;0.30;100.00
62634;BME280;48704;50.534;6.442;2023-01-29T12:39:24;96349.13;;;0.05;100.00
62634;BME280;48704;50.534;6.442;2023-01-29T12:41:52;96345.22;;;0.13;100.00
62634;BME280;48704;50.534;6.442;2023-01-29T12:44:31;96342.09;;;0.39;100.00
62634;BME280;48704;50.534;6.442;2023-01-29T12:46:59;96330.31;;;0.56;100.00
62634;BME280;48704;50.534;6.442;2023-01-29T12:49:29;96332.69;;;0.40;100.00
62634;BME280;48704;50.534;6.442;2023-01-29T12:51:58;96328.75;;;0.70;100.00
62634;BME280;48704;50.534;6.442;2023-01-29T12:57:24;96317.06;;;0.26;100.00
62634;BME280;48704;50.534;6.442;2023-01-29T12:59:58;96316.63;;;0.46;100.00
62634;BME280;48704;50.534;6.442;2023-01-29T13:02:32;96312.34;;;0.02;100.00
62634;BME280;48704;50.534;6.442;2023-01-29T13:05:13;96307.66;;;-0.19;100.00
62634;BME280;48704;50.534;6.442;2023-01-29T13:07:45;96299.72;;;-0.74;100.00
62634;BME280;48704;50.534;6.442;2023-01-29T13:10:17;96295.03;;;-0.70;100.00
62634;BME280;48704;50.534;6.442;2023-01-29T13:12:54;96282.59;;;-0.49;100.00
62634;BME280;48704;50.534;6.442;2023-01-29T13:15:27;96286.81;;;-0.84;100.00
62634;BME280;48704;50.534;6.442;2023-01-29T13:17:58;96287.19;;;-0.89;100.00
62634;BME280;48704;50.534;6.442;2023-01-29T13:20:32;96287.16;;;-0.96;100.00
62634;BME280;48704;50.534;6.442;2023-01-29T13:23:20;96288.69;;;-1.13;100.00
62634;BME280;48704;50.534;6.442;2023-01-29T13:25:49;96288.63;;;-1.27;100.00
62634;BME280;48704;50.534;6.442;2023-01-29T13:28:23;96286.53;;;-1.48;100.00
62634;BME280;48704;50.534;6.442;2023-01-29T13:33:58;96289.53;;;-1.74;100.00
62634;BME280;48704;50.534;6.442;2023-01-29T13:36:28;96278.13;;;-1.83;100.00
62634;BME280;48704;50.534;6.442;2023-01-29T13:39:36;96274.34;;;-1.68;100.00
62634;BME280;48704;50.534;6.442;2023-01-29T13:42:14;96272.69;;;-1.80;100.00
62634;BME280;48704;50.534;6.442;2023-01-29T13:44:40;96270.00;;;-1.76;100.00
62634;BME280;48704;50.534;6.442;2023-01-29T13:47:10;96256.41;;;-1.65;100.00
62634;BME280;48704;50.534;6.442;2023-01-29T13:49:51;96259.00;;;-1.90;100.00
62634;BME280;48704;50.534;6.442;2023-01-29T13:52:42;96263.28;;;-1.89;100.00
62634;BME280;48704;50.534;6.442;2023-01-29T14:02:44;96249.16;;;-2.02;100.00
62634;BME280;48704;50.534;6.442;2023-01-29T14:07:58;96245.91;;;-2.18;100.00
62634;BME280;48704;50.534;6.442;2023-01-29T14:10:25;96245.25;;;-2.05;100.00
62634;BME280;48704;50.534;6.442;2023-01-29T14:12:52;96241.16;;;-2.32;100.00
62634;BME280;48704;50.534;6.442;2023-01-29T14:15:23;96228.94;;;-2.45;100.00
62634;BME280;48704;50.534;6.442;2023-01-29T14:20:38;96226.66;;;-2.40;100.00
62634;BME280;48704;50.534;6.442;2023-01-29T14:23:06;96223.84;;;-2.50;100.00
62634;BME280;48704;50.534;6.442;2023-01-29T14:25:37;96221.81;;;-2.57;100.00
62634;BME280;48704;50.534;6.442;2023-01-29T14:28:13;96199.69;;;-2.48;100.00
62634;BME280;48704;50.534;6.442;2023-01-29T14:30:39;96198.25;;;-2.31;100.00
62634;BME280;48704;50.534;6.442;2023-01-29T14:35:51;96195.47;;;-2.39;100.00
62634;BME280;48704;50.534;6.442;2023-01-29T14:38:22;96189.34;;;-2.25;100.00
62634;BME280;48704;50.534;6.442;2023-01-29T14:40:50;96191.16;;;-2.43;100.00
62634;BME280;48704;50.534;6.442;2023-01-29T14:43:17;96200.16;;;-2.39;100.00
62634;BME280;48704;50.534;6.442;2023-01-29T14:45:46;96209.03;;;-2.49;100.00
62634;BME280;48704;50.534;6.442;2023-01-29T14:50:40;96208.25;;;-2.50;100.00